createdAt,value
2017-12-02T00:00:30.518Z,-0.50
2017-12-02T00:02:58.052Z,-0.50
2017-12-02T00:05:26.372Z,-0.40
2017-12-02T00:07:53.914Z,-0.40
2017-12-02T00:10:21.463Z,-0.40
2017-12-02T00:12:49.024Z,-0.50
2017-12-02T00:15:16.606Z,-0.30
2017-12-02T00:17:44.157Z,-0.40
2017-12-02T00:20:11.720Z,-0.40
2017-12-02T00:22:39.393Z,-0.30
2017-12-02T00:25:06.950Z,-0.40
2017-12-02T00:27:34.537Z,-0.40
2017-12-02T00:30:02.085Z,-0.40
2017-12-02T00:32:29.641Z,-0.30
2017-12-02T00:34:57.282Z,-0.40
2017-12-02T00:37:24.830Z,-0.40
2017-12-02T00:39:52.513Z,-0.50
2017-12-02T00:42:20.056Z,-0.50
2017-12-02T00:44:47.605Z,-0.50
2017-12-02T00:47:15.144Z,-0.40
2017-12-02T00:49:43.473Z,-0.50
2017-12-02T00:52:11.165Z,-0.50
2017-12-02T00:54:38.711Z,-0.50
2017-12-02T00:57:06.237Z,-0.40
2017-12-02T00:59:34.573Z,-0.60
2017-12-02T01:02:02.124Z,-0.60
2017-12-02T01:04:29.657Z,-0.70
2017-12-02T01:06:57.217Z,-0.70
2017-12-02T01:09:24.805Z,-0.80
2017-12-02T01:11:52.365Z,-0.70
2017-12-02T01:14:19.913Z,-0.70
2017-12-02T01:16:47.482Z,-0.70
2017-12-02T01:19:15.017Z,-0.60
2017-12-02T01:21:42.557Z,-0.60
2017-12-02T01:24:10.115Z,-0.80
2017-12-02T01:26:38.427Z,-0.90
2017-12-02T01:29:05.988Z,-0.90
2017-12-02T01:31:33.516Z,-0.90
2017-12-02T01:34:01.075Z,-0.90
2017-12-02T01:36:28.625Z,-1.10
2017-12-02T01:38:56.948Z,-1.30
2017-12-02T01:41:24.481Z,-1.30
2017-12-02T01:43:52.032Z,-1.40
2017-12-02T01:46:19.570Z,-1.40
2017-12-02T01:48:47.893Z,-1.60
2017-12-02T01:51:15.442Z,-1.60
2017-12-02T01:53:42.991Z,-1.60
2017-12-02T01:56:10.520Z,-1.60
2017-12-02T01:58:38.050Z,-1.70
2017-12-02T02:01:05.618Z,-1.80
2017-12-02T02:03:33.153Z,-1.80
2017-12-02T02:06:01.093Z,-1.80
2017-12-02T02:08:28.621Z,-1.90
2017-12-02T02:10:56.207Z,-2.00
2017-12-02T02:13:24.539Z,-2.10
2017-12-02T02:15:52.135Z,-2.10
2017-12-02T02:18:20.450Z,-2.10
2017-12-02T02:20:47.973Z,-2.10
2017-12-02T02:23:16.297Z,-2.30
2017-12-02T02:25:43.829Z,-2.30
2017-12-02T02:28:11.378Z,-2.30
2017-12-02T02:30:38.909Z,-2.30
2017-12-02T02:33:06.463Z,-2.30
2017-12-02T02:35:34.769Z,-2.40
2017-12-02T02:38:02.347Z,-2.50
2017-12-02T02:40:29.884Z,-2.50
2017-12-02T02:42:57.417Z,-2.50
2017-12-02T02:45:25.780Z,-2.60
2017-12-02T02:47:53.327Z,-2.50
2017-12-02T02:50:20.884Z,-2.60
2017-12-02T02:52:48.437Z,-2.60
2017-12-02T02:55:16.011Z,-2.70
2017-12-02T02:57:43.540Z,-2.70
2017-12-02T03:00:11.097Z,-2.60
2017-12-02T03:02:38.654Z,-2.70
2017-12-02T03:05:06.219Z,-2.70
2017-12-02T03:07:33.754Z,-2.80
2017-12-02T03:10:01.310Z,-2.80
2017-12-02T03:12:30.489Z,-2.80
2017-12-02T03:14:58.058Z,-2.80
2017-12-02T03:17:26.375Z,-2.80
2017-12-02T03:19:53.921Z,-2.90
2017-12-02T03:22:21.468Z,-2.90
2017-12-02T03:24:49.819Z,-2.90
2017-12-02T03:27:17.356Z,-2.90
2017-12-02T03:29:44.921Z,-2.90
2017-12-02T03:32:13.478Z,-2.90
2017-12-02T03:34:41.042Z,-2.90
2017-12-02T03:37:09.469Z,-2.90
2017-12-02T03:39:37.008Z,-2.90
2017-12-02T03:42:04.577Z,-2.90
2017-12-02T03:44:32.105Z,-2.90
2017-12-02T03:46:59.652Z,-3.00
2017-12-02T03:49:27.958Z,-2.90
2017-12-02T03:51:55.508Z,-2.90
2017-12-02T03:54:23.037Z,-2.90
2017-12-02T03:56:50.602Z,-2.90
2017-12-02T03:59:18.144Z,-2.90
2017-12-02T04:01:45.709Z,-2.90
2017-12-02T04:04:13.271Z,-2.90
2017-12-02T04:06:40.829Z,-2.90
2017-12-02T04:09:10.200Z,-2.90
2017-12-02T04:11:38.502Z,-3.00
2017-12-02T04:14:06.046Z,-2.90
2017-12-02T04:16:34.353Z,-2.90
2017-12-02T04:19:01.905Z,-3.00
2017-12-02T04:21:29.478Z,-3.00
2017-12-02T04:23:57.031Z,-3.10
2017-12-02T04:26:24.601Z,-3.10
2017-12-02T04:28:52.156Z,-3.10
2017-12-02T04:31:19.690Z,-3.10
2017-12-02T04:33:47.242Z,-3.20
2017-12-02T04:36:14.794Z,-3.20
2017-12-02T04:38:42.339Z,-3.20
2017-12-02T04:41:09.898Z,-3.20
2017-12-02T04:43:37.438Z,-3.20
2017-12-02T04:46:04.996Z,-3.10
2017-12-02T04:48:32.538Z,-3.10
2017-12-02T04:51:00.851Z,-3.10
2017-12-02T04:53:28.392Z,-3.10
2017-12-02T04:55:55.958Z,-3.10
2017-12-02T04:58:23.508Z,-3.00
2017-12-02T05:00:51.821Z,-3.00
2017-12-02T05:03:19.368Z,-3.00
2017-12-02T05:05:46.908Z,-3.00
2017-12-02T05:08:14.473Z,-3.00
2017-12-02T05:10:42.009Z,-3.00
2017-12-02T05:13:10.426Z,-2.90
2017-12-02T05:15:37.969Z,-2.90
2017-12-02T05:18:05.529Z,-2.90
2017-12-02T05:20:33.061Z,-2.90
2017-12-02T05:23:00.645Z,-2.90
2017-12-02T05:25:28.228Z,-2.90
2017-12-02T05:27:55.792Z,-2.80
2017-12-02T05:30:23.338Z,-2.90
2017-12-02T05:32:50.896Z,-2.90
2017-12-02T05:35:19.218Z,-3.00
2017-12-02T05:37:46.778Z,-3.00
2017-12-02T05:40:14.335Z,-3.00
2017-12-02T05:42:41.877Z,-3.10
2017-12-02T05:45:09.430Z,-3.10
2017-12-02T05:47:37.731Z,-3.40
2017-12-02T05:50:05.285Z,-3.40
2017-12-02T05:52:32.816Z,-3.40
2017-12-02T05:55:01.140Z,-3.30
2017-12-02T05:57:28.680Z,-3.30
2017-12-02T05:59:56.220Z,-3.20
2017-12-02T06:02:23.780Z,-3.30
2017-12-02T06:04:51.307Z,-3.20
2017-12-02T06:07:19.431Z,-3.20
2017-12-02T06:09:46.957Z,-3.10
2017-12-02T06:12:15.284Z,-2.90
2017-12-02T06:14:43.180Z,-2.90
2017-12-02T06:17:11.493Z,-2.70
2017-12-02T06:19:39.039Z,-2.80
2017-12-02T06:22:06.605Z,-2.70
2017-12-02T06:24:34.141Z,-2.70
2017-12-02T06:27:01.735Z,-2.60
2017-12-02T06:29:29.275Z,-2.60
2017-12-02T06:31:56.849Z,-2.40
2017-12-02T06:34:25.185Z,-2.50
2017-12-02T06:36:53.501Z,-2.40
2017-12-02T06:39:21.054Z,-2.40
2017-12-02T06:41:48.597Z,-2.40
2017-12-02T06:44:16.158Z,-2.40
2017-12-02T06:46:43.712Z,-2.50
2017-12-02T06:49:12.028Z,-2.50
2017-12-02T06:51:39.577Z,-2.50
2017-12-02T06:54:07.144Z,-2.40
2017-12-02T06:56:34.697Z,-2.40
2017-12-02T06:59:02.253Z,-2.40
2017-12-02T07:01:29.801Z,-2.20
2017-12-02T07:03:57.352Z,-2.20
2017-12-02T07:06:24.918Z,-2.30
2017-12-02T07:08:52.453Z,-2.30
2017-12-02T07:11:20.785Z,-2.40
2017-12-02T07:13:48.343Z,-2.40
2017-12-02T07:16:15.936Z,-2.30
2017-12-02T07:18:44.416Z,-2.40
2017-12-02T07:21:11.968Z,-2.30
2017-12-02T07:23:39.552Z,-2.30
2017-12-02T07:26:07.880Z,-2.30
2017-12-02T07:28:35.429Z,-2.30
2017-12-02T07:31:03.754Z,-2.30
2017-12-02T07:33:31.312Z,-2.40
2017-12-02T07:35:58.861Z,-2.30
2017-12-02T07:38:26.408Z,-2.30
2017-12-02T07:40:53.953Z,-2.20
2017-12-02T07:43:21.503Z,-2.20
2017-12-02T07:45:49.739Z,-2.40
2017-12-02T07:48:18.065Z,-2.30
2017-12-02T07:50:45.648Z,-2.30
2017-12-02T07:53:13.221Z,-2.20
2017-12-02T07:55:40.757Z,-2.20
2017-12-02T07:58:08.309Z,-2.10
2017-12-02T08:00:35.838Z,-2.10
2017-12-02T08:03:03.400Z,-2.10
2017-12-02T08:05:30.943Z,-2.20
2017-12-02T08:07:59.310Z,-2.00
2017-12-02T08:10:27.609Z,-2.00
2017-12-02T08:12:55.169Z,-2.00
2017-12-02T08:15:22.727Z,-2.10
2017-12-02T08:17:50.268Z,-2.00
2017-12-02T08:20:18.602Z,-1.90
2017-12-02T08:22:46.908Z,-1.70
2017-12-02T08:25:14.467Z,-1.70
2017-12-02T08:27:42.000Z,-1.70
2017-12-02T08:30:10.332Z,-1.70
2017-12-02T08:32:37.881Z,-1.70
2017-12-02T08:35:05.440Z,-1.70
2017-12-02T08:37:32.965Z,-1.70
2017-12-02T08:40:00.545Z,-1.70
2017-12-02T08:42:28.094Z,-1.80
2017-12-02T08:44:55.663Z,-1.90
2017-12-02T08:47:23.225Z,-1.80
2017-12-02T08:49:50.778Z,-1.70
2017-12-02T08:52:18.346Z,-1.60
2017-12-02T08:54:45.921Z,-1.60
2017-12-02T08:57:13.466Z,-1.60
2017-12-02T08:59:41.038Z,-1.60
2017-12-02T09:02:08.585Z,-1.50
2017-12-02T09:04:38.928Z,-1.20
2017-12-02T09:07:06.480Z,-1.30
2017-12-02T09:09:34.798Z,-1.10
2017-12-02T09:12:02.337Z,-1.20
2017-12-02T09:14:29.887Z,-1.10
2017-12-02T09:16:57.554Z,-1.20
2017-12-02T09:19:25.096Z,-1.10
2017-12-02T09:21:52.677Z,-1.00
2017-12-02T09:24:20.256Z,-0.90
2017-12-02T09:26:47.804Z,-0.80
2017-12-02T09:29:15.370Z,-0.80
2017-12-02T09:31:42.923Z,-0.70
2017-12-02T09:34:10.470Z,-0.80
2017-12-02T09:36:40.472Z,-0.80
2017-12-02T09:39:09.617Z,-0.90
2017-12-02T09:41:38.191Z,-0.90
2017-12-02T09:44:06.240Z,-0.90
2017-12-02T09:46:35.334Z,-0.90
2017-12-02T09:49:02.889Z,-0.80
2017-12-02T09:51:30.436Z,-0.90
2017-12-02T09:53:57.997Z,-0.80
2017-12-02T09:56:25.558Z,-0.80
2017-12-02T09:58:53.118Z,-0.90
2017-12-02T10:01:20.681Z,-0.80
2017-12-02T10:03:48.249Z,-0.90
2017-12-02T10:06:15.819Z,-0.80
2017-12-02T10:08:43.376Z,-0.70
2017-12-02T10:11:10.942Z,-0.60
2017-12-02T10:13:39.263Z,-0.50
2017-12-02T10:16:06.890Z,-0.50
2017-12-02T10:18:35.200Z,-0.30
2017-12-02T10:21:02.768Z,-0.30
2017-12-02T10:23:30.396Z,-0.50
2017-12-02T10:25:57.988Z,-0.40
2017-12-02T10:28:25.600Z,-0.30
2017-12-02T10:30:53.960Z,-0.20
2017-12-02T10:33:21.536Z,-0.20
2017-12-02T10:35:49.097Z,-0.30
2017-12-02T10:38:17.428Z,-0.40
2017-12-02T10:40:44.972Z,-0.40
2017-12-02T10:43:12.558Z,-0.30
2017-12-02T10:45:40.125Z,-0.30
2017-12-02T10:48:07.677Z,-0.40
2017-12-02T10:50:35.219Z,-0.30
2017-12-02T10:53:02.792Z,-0.30
2017-12-02T10:55:30.339Z,-0.20
2017-12-02T10:57:57.941Z,-0.30
2017-12-02T11:00:25.510Z,-0.20
2017-12-02T11:02:53.098Z,-0.20
2017-12-02T11:05:21.412Z,-0.10
2017-12-02T11:07:48.981Z,-0.20
2017-12-02T11:10:16.524Z,-0.30
2017-12-02T11:12:44.113Z,-0.40
2017-12-02T11:15:11.729Z,-0.50
2017-12-02T11:17:39.345Z,-0.30
2017-12-02T11:20:06.913Z,-0.40
2017-12-02T11:22:34.456Z,-0.40
2017-12-02T11:25:02.029Z,-0.50
2017-12-02T11:27:29.582Z,-0.40
2017-12-02T11:29:57.141Z,-0.30
2017-12-02T11:32:24.689Z,-0.30
2017-12-02T11:34:52.257Z,-0.10
2017-12-02T11:37:19.810Z,0.00
2017-12-02T11:39:47.386Z,0.00
2017-12-02T11:42:14.968Z,-0.10
2017-12-02T11:44:42.529Z,-0.20
2017-12-02T11:47:10.077Z,-0.10
2017-12-02T11:49:37.620Z,-0.10
2017-12-02T11:52:05.182Z,-0.10
2017-12-02T11:54:32.705Z,-0.10
2017-12-02T11:57:01.021Z,-0.20
2017-12-02T11:59:28.597Z,-0.20
2017-12-02T12:01:56.157Z,0.00
2017-12-02T12:04:23.698Z,-0.10
2017-12-02T12:06:51.243Z,-0.30
2017-12-02T12:09:18.806Z,-0.20
2017-12-02T12:11:46.345Z,-0.20
2017-12-02T12:14:14.708Z,-0.20
2017-12-02T12:16:42.262Z,-0.20
2017-12-02T12:19:10.581Z,0.00
2017-12-02T12:21:38.132Z,-0.10
2017-12-02T12:24:05.681Z,0.00
2017-12-02T12:26:33.214Z,0.00
2017-12-02T12:29:00.828Z,0.00
2017-12-02T12:31:28.364Z,0.00
2017-12-02T12:33:55.925Z,0.10
2017-12-02T12:36:24.154Z,0.20
2017-12-02T12:38:52.472Z,0.10
2017-12-02T12:41:20.098Z,0.10
2017-12-02T12:43:48.639Z,0.10
2017-12-02T12:46:16.524Z,0.10
2017-12-02T12:48:44.283Z,0.20
2017-12-02T12:51:12.144Z,0.00
2017-12-02T12:53:39.904Z,0.10
2017-12-02T12:56:07.766Z,0.20
2017-12-02T12:58:35.503Z,0.40
2017-12-02T13:01:03.601Z,0.30
2017-12-02T13:03:31.375Z,0.30
2017-12-02T13:05:58.918Z,0.30
2017-12-02T13:08:26.500Z,0.30
2017-12-02T13:10:54.325Z,0.30
2017-12-02T13:13:22.194Z,0.30
2017-12-02T13:15:49.926Z,0.50
2017-12-02T13:18:17.475Z,0.40
2017-12-02T13:20:45.208Z,0.30
2017-12-02T13:23:12.922Z,0.20
2017-12-02T13:25:40.699Z,0.30
2017-12-02T13:28:08.264Z,0.20
2017-12-02T13:30:36.036Z,0.20
2017-12-02T13:33:04.354Z,0.20
2017-12-02T13:35:32.162Z,0.20
2017-12-02T13:38:00.018Z,0.20
2017-12-02T13:40:27.892Z,0.10
2017-12-02T13:42:55.636Z,0.20
2017-12-02T13:45:23.424Z,0.30
2017-12-02T13:47:52.678Z,0.20
2017-12-02T13:50:20.249Z,0.10
2017-12-02T13:52:47.785Z,0.00
2017-12-02T13:55:15.352Z,0.10
2017-12-02T13:57:42.889Z,0.10
2017-12-02T14:00:11.204Z,0.10
2017-12-02T14:02:38.772Z,0.10
2017-12-02T14:05:06.313Z,0.10
2017-12-02T14:07:33.876Z,0.00
2017-12-02T14:10:01.443Z,-0.10
2017-12-02T14:12:29.096Z,0.00
2017-12-02T14:14:56.793Z,0.00
2017-12-02T14:17:24.434Z,0.00
2017-12-02T14:19:52.210Z,0.10
2017-12-02T14:22:22.647Z,0.10
2017-12-02T14:24:50.430Z,0.10
2017-12-02T14:27:18.203Z,0.10
2017-12-02T14:29:46.045Z,0.10
2017-12-02T14:32:13.616Z,0.00
2017-12-02T14:34:41.184Z,0.00
2017-12-02T14:37:08.762Z,-0.10
2017-12-02T14:39:37.105Z,-0.20
2017-12-02T14:42:04.652Z,-0.20
2017-12-02T14:44:33.309Z,-0.20
2017-12-02T14:47:01.002Z,-0.10
2017-12-02T14:49:28.569Z,-0.10
2017-12-02T14:51:56.098Z,-0.10
2017-12-02T14:54:23.657Z,0.00
2017-12-02T14:56:51.229Z,-0.10
2017-12-02T14:59:18.752Z,-0.10
2017-12-02T15:01:47.081Z,-0.10
2017-12-02T15:04:14.639Z,-0.20
2017-12-02T15:06:42.188Z,-0.20
2017-12-02T15:09:09.844Z,-0.20
2017-12-02T15:11:37.425Z,-0.30
2017-12-02T15:14:05.886Z,-0.30
2017-12-02T15:16:33.447Z,-0.40
2017-12-02T15:19:00.996Z,-0.40
2017-12-02T15:21:28.553Z,-0.50
2017-12-02T15:23:56.095Z,-0.40
2017-12-02T15:26:24.529Z,-0.60
2017-12-02T15:28:52.063Z,-0.60
2017-12-02T15:31:19.645Z,-0.60
2017-12-02T15:33:47.178Z,-0.60
2017-12-02T15:36:14.796Z,-0.60
2017-12-02T15:38:43.113Z,-0.70
2017-12-02T15:41:10.656Z,-0.80
2017-12-02T15:43:38.222Z,-0.70
2017-12-02T15:46:05.792Z,-0.70
2017-12-02T15:48:34.010Z,-0.70
2017-12-02T15:51:02.330Z,-0.80
2017-12-02T15:53:30.136Z,-0.80
2017-12-02T15:56:00.374Z,-0.80
2017-12-02T15:58:28.846Z,-0.80
2017-12-02T16:00:56.801Z,-0.90
2017-12-02T16:03:24.673Z,-0.80
2017-12-02T16:05:52.239Z,-0.90
2017-12-02T16:08:19.822Z,-0.80
2017-12-02T16:10:48.129Z,-0.80
2017-12-02T16:13:15.700Z,-0.80
2017-12-02T16:15:43.251Z,-0.80
2017-12-02T16:18:10.798Z,-0.90
2017-12-02T16:20:38.360Z,-0.90
2017-12-02T16:23:05.937Z,-0.90
2017-12-02T16:25:33.487Z,-0.90
2017-12-02T16:28:01.053Z,-0.90
2017-12-02T16:30:29.388Z,-1.00
2017-12-02T16:32:56.948Z,-1.00
2017-12-02T16:35:24.491Z,-1.00
2017-12-02T16:37:52.052Z,-1.00
2017-12-02T16:40:19.607Z,-0.90
2017-12-02T16:42:47.174Z,-0.90
2017-12-02T16:45:14.752Z,-0.90
2017-12-02T16:47:42.324Z,-0.90
2017-12-02T16:50:09.873Z,-0.90
2017-12-02T16:52:37.437Z,-1.00
2017-12-02T16:55:04.973Z,-0.90
2017-12-02T16:57:33.296Z,-1.00
2017-12-02T17:00:00.876Z,-1.00
2017-12-02T17:02:28.435Z,-1.00
2017-12-02T17:04:56.001Z,-1.00
2017-12-02T17:07:24.335Z,-1.00
2017-12-02T17:09:51.901Z,-0.90
2017-12-02T17:12:19.569Z,-0.90
2017-12-02T17:14:47.123Z,-1.00
2017-12-02T17:17:14.733Z,-1.00
2017-12-02T17:19:42.297Z,-1.10
2017-12-02T17:22:09.851Z,-1.00
2017-12-02T17:24:37.421Z,-1.10
2017-12-02T17:27:05.733Z,-1.10
2017-12-02T17:29:33.287Z,-1.10
2017-12-02T17:32:00.853Z,-1.10
2017-12-02T17:34:28.428Z,-1.10
2017-12-02T17:36:57.119Z,-1.10
2017-12-02T17:39:24.910Z,-1.10
2017-12-02T17:41:53.765Z,-1.10
2017-12-02T17:44:22.097Z,-1.10
2017-12-02T17:46:50.046Z,-1.00
2017-12-02T17:49:18.615Z,-1.00
2017-12-02T17:51:46.683Z,-1.10
2017-12-02T17:54:14.470Z,-1.10
2017-12-02T17:56:43.000Z,-1.10
2017-12-02T17:59:12.962Z,-1.20
2017-12-02T18:01:40.557Z,-1.20
2017-12-02T18:04:08.872Z,-1.30
2017-12-02T18:06:36.442Z,-1.30
2017-12-02T18:09:04.011Z,-1.30
2017-12-02T18:11:31.572Z,-1.30
2017-12-02T18:13:59.130Z,-1.30
2017-12-02T18:16:26.689Z,-1.30
2017-12-02T18:18:54.223Z,-1.30
2017-12-02T18:21:21.762Z,-1.30
2017-12-02T18:23:49.389Z,-1.30
2017-12-02T18:26:17.691Z,-1.20
2017-12-02T18:28:45.259Z,-1.20
2017-12-02T18:31:12.796Z,-1.20
2017-12-02T18:33:40.348Z,-1.10
2017-12-02T18:36:08.654Z,-1.20
2017-12-02T18:38:36.207Z,-1.30
2017-12-02T18:41:03.763Z,-1.30
2017-12-02T18:43:31.308Z,-1.30
2017-12-02T18:45:59.643Z,-1.20
2017-12-02T18:48:27.189Z,-1.20
2017-12-02T18:50:54.774Z,-1.20
2017-12-02T18:53:22.337Z,-1.20
2017-12-02T18:55:49.869Z,-1.20
2017-12-02T18:58:17.419Z,-1.10
2017-12-02T19:00:44.996Z,-1.20
2017-12-02T19:03:12.534Z,-1.20
2017-12-02T19:05:40.123Z,-1.20
2017-12-02T19:08:07.670Z,-1.20
2017-12-02T19:10:35.232Z,-1.10
2017-12-02T19:13:02.801Z,-1.10
2017-12-02T19:15:30.330Z,-1.10
2017-12-02T19:17:58.668Z,-1.20
2017-12-02T19:20:26.244Z,-1.20
2017-12-02T19:22:53.808Z,-1.10
2017-12-02T19:25:22.139Z,-1.10
2017-12-02T19:27:49.892Z,-1.10
2017-12-02T19:30:17.456Z,-1.20
2017-12-02T19:32:45.027Z,-1.20
2017-12-02T19:35:12.586Z,-1.10
2017-12-02T19:37:40.167Z,-1.00
2017-12-02T19:40:07.714Z,-1.10
2017-12-02T19:42:35.294Z,-1.20
2017-12-02T19:45:03.636Z,-1.10
2017-12-02T19:47:31.241Z,-1.10
2017-12-02T19:49:58.769Z,-1.00
2017-12-02T19:52:26.341Z,-0.90
2017-12-02T19:54:53.895Z,-1.00
2017-12-02T19:57:21.478Z,-1.10
2017-12-02T19:59:49.037Z,-1.00
2017-12-02T20:02:16.584Z,-1.10
2017-12-02T20:04:44.150Z,-1.00
2017-12-02T20:07:11.701Z,-1.10
2017-12-02T20:09:39.308Z,-1.20
2017-12-02T20:12:07.612Z,-1.20
2017-12-02T20:14:35.181Z,-1.20
2017-12-02T20:17:02.733Z,-1.20
2017-12-02T20:19:30.886Z,-1.20
2017-12-02T20:21:58.425Z,-1.20
2017-12-02T20:24:27.177Z,-1.20
2017-12-02T20:26:54.763Z,-1.20
2017-12-02T20:29:22.292Z,-1.00
2017-12-02T20:31:49.862Z,-1.00
2017-12-02T20:34:17.420Z,-1.10
2017-12-02T20:36:44.992Z,-1.10
2017-12-02T20:39:12.537Z,-1.10
2017-12-02T20:41:40.099Z,-1.10
2017-12-02T20:44:07.636Z,-1.10
2017-12-02T20:46:35.197Z,-1.20
2017-12-02T20:49:02.783Z,-1.20
2017-12-02T20:51:30.365Z,-1.20
2017-12-02T20:53:58.731Z,-1.10
2017-12-02T20:56:26.305Z,-1.20
2017-12-02T20:58:54.636Z,-1.20
2017-12-02T21:01:22.193Z,-1.20
2017-12-02T21:03:49.769Z,-1.20
2017-12-02T21:06:21.771Z,-1.40
2017-12-02T21:08:49.473Z,-1.40
2017-12-02T21:11:17.729Z,-1.50
2017-12-02T21:13:45.294Z,-1.40
2017-12-02T21:16:13.138Z,-1.40
2017-12-02T21:18:40.919Z,-1.30
2017-12-02T21:21:08.562Z,-1.30
2017-12-02T21:23:36.145Z,-1.20
2017-12-02T21:26:03.708Z,-1.30
2017-12-02T21:28:31.280Z,-1.20
2017-12-02T21:30:58.816Z,-1.40
2017-12-02T21:33:26.395Z,-1.50
2017-12-02T21:35:53.970Z,-1.40
2017-12-02T21:38:21.826Z,-1.40
2017-12-02T21:40:49.694Z,-1.30
2017-12-02T21:43:17.765Z,-1.30
2017-12-02T21:45:45.526Z,-1.30
2017-12-02T21:48:13.376Z,-1.30
2017-12-02T21:50:42.783Z,-1.30
2017-12-02T21:53:10.689Z,-1.20
2017-12-02T21:55:39.148Z,-1.20
2017-12-02T21:58:06.915Z,-1.20
2017-12-02T22:00:35.044Z,-1.20
2017-12-02T22:03:02.835Z,-1.30
2017-12-02T22:05:31.028Z,-1.30
2017-12-02T22:07:58.900Z,-1.30
2017-12-02T22:10:26.763Z,-1.40
2017-12-02T22:12:55.549Z,-1.40
2017-12-02T22:15:23.323Z,-1.50
2017-12-02T22:17:51.146Z,-1.60
2017-12-02T22:20:18.720Z,-1.50
2017-12-02T22:22:47.105Z,-1.50
2017-12-02T22:25:14.773Z,-1.50
2017-12-02T22:27:42.559Z,-1.50
2017-12-02T22:30:10.415Z,-1.50
2017-12-02T22:32:38.437Z,-1.50
2017-12-02T22:35:06.001Z,-1.60
2017-12-02T22:37:33.556Z,-1.70
2017-12-02T22:40:01.137Z,-1.70
2017-12-02T22:42:28.679Z,-1.60
2017-12-02T22:44:56.237Z,-1.60
2017-12-02T22:47:23.794Z,-1.50
2017-12-02T22:49:51.355Z,-1.50
2017-12-02T22:52:18.888Z,-1.60
2017-12-02T22:54:46.447Z,-1.50
2017-12-02T22:57:13.992Z,-1.50
2017-12-02T22:59:41.553Z,-1.50
2017-12-02T23:02:10.589Z,-1.40
2017-12-02T23:04:38.166Z,-1.40
2017-12-02T23:07:05.704Z,-1.40
2017-12-02T23:09:33.246Z,-1.40
2017-12-02T23:12:00.815Z,-1.50
2017-12-02T23:14:28.375Z,-1.40
2017-12-02T23:16:55.931Z,-1.40
2017-12-02T23:19:23.476Z,-1.60
2017-12-02T23:21:51.041Z,-1.70
2017-12-02T23:24:18.576Z,-1.60
2017-12-02T23:26:46.125Z,-1.80
2017-12-02T23:29:13.671Z,-1.70
2017-12-02T23:31:41.236Z,-1.70
2017-12-02T23:34:10.272Z,-1.90
2017-12-02T23:36:37.860Z,-1.90
2017-12-02T23:39:05.389Z,-1.90
2017-12-02T23:41:32.974Z,-2.00
2017-12-02T23:44:00.520Z,-1.90
2017-12-02T23:46:28.091Z,-1.90
2017-12-02T23:48:56.397Z,-1.80
2017-12-02T23:51:23.952Z,-1.80
2017-12-02T23:53:51.503Z,-1.70
2017-12-02T23:56:19.041Z,-1.70
2017-12-02T23:58:47.390Z,-1.50
